Majenica, Indiana
Current Conditions -  °F | °C
As of 11:55 AM on Friday 24 Oct 2014 (Local Time) from KHHG Reporting Station
Overcast Overcast  
Wind Chill: 55°   Ceiling: 2800
Heat Index: 55°   Visibility: 10mi
Dew Point: 47°   Wind: 8mph
Humidity: 76%   Direction: 270°W
Pressure: 30.09"   Gusts: NA
Location:  40.9238°N, 85.5001°W
Report Text: KHHG 241555Z AUTO 27007KT 10SM OVC028 13/08 A3009 RMK AO2 T01250084
Loading
Personal Weather Stations






























Interactive Weather Map
Tropical Storm Tracking
New forecast layout! Learn more

10-Day Weather Forecast

Advertisements
Track Severe Weather on mobile